Time;durP1;ratioP1;P1;durP2;ratioP2;P2;SDS_P1;SDS_P2;PMS_P1;PMS_P2;Temp;Humidity;BMP_temperature;BMP_pressure;BME280_temperature;BME280_humidity;BME280_pressure;Samples;Min_cycle;Max_cycle;Signal;HPM_P1;HPM_P2
2022/07/26 00:00:19;;;;;;;14.57;12.93;;;;;;;22.27;57.50;94471.06;4209422;28;20052;-56
2022/07/26 00:02:21;;;;;;;15.07;13.57;;;;;;;22.17;57.91;94467.38;4223681;28;20093;-56
2022/07/26 00:04:24;;;;;;;13.95;12.63;;;;;;;22.24;57.62;94465.41;4210915;28;20044;-55
2022/07/26 00:06:26;;;;;;;17.40;12.95;;;;;;;22.48;57.46;94474.16;4217821;28;20051;-55
2022/07/26 00:08:28;;;;;;;16.08;12.88;;;;;;;22.28;57.83;94470.03;4217687;28;20166;-56
2022/07/26 00:10:30;;;;;;;13.15;11.75;;;;;;;22.11;57.95;94470.97;4226554;28;20417;-57
2022/07/26 00:12:32;;;;;;;14.95;12.25;;;;;;;21.93;58.67;94466.63;4225929;28;20043;-55
2022/07/26 00:14:34;;;;;;;13.82;12.43;;;;;;;21.88;59.06;94470.00;4219129;28;20044;-56
2022/07/26 00:16:36;;;;;;;13.27;11.93;;;;;;;21.74;59.20;94468.63;4218607;28;20059;-55
2022/07/26 00:18:38;;;;;;;15.23;12.37;;;;;;;21.66;59.50;94465.28;4222785;28;20052;-54
2022/07/26 00:20:40;;;;;;;13.88;12.27;;;;;;;21.51;60.27;94459.63;4215224;28;20471;-56
2022/07/26 00:22:42;;;;;;;14.10;12.43;;;;;;;21.43;60.29;94457.28;4213650;28;20416;-57
2022/07/26 00:24:44;;;;;;;18.75;12.82;;;;;;;21.44;60.55;94461.56;4223473;28;20051;-55
2022/07/26 00:26:46;;;;;;;16.40;13.15;;;;;;;21.52;60.24;94463.88;4216788;28;20044;-56
2022/07/26 00:28:47;;;;;;;16.35;12.63;;;;;;;21.72;59.62;94457.38;4224969;28;20470;-56
2022/07/26 00:30:49;;;;;;;14.90;12.23;;;;;;;21.96;59.07;94456.31;4214854;28;20657;-55
2022/07/26 00:32:54;;;;;;;15.70;12.68;;;;;;;22.23;58.16;94455.78;4222509;28;20112;-57
2022/07/26 00:34:55;;;;;;;15.07;12.98;;;;;;;22.46;57.64;94453.03;4209786;28;20051;-55
2022/07/26 00:36:57;;;;;;;14.18;12.48;;;;;;;22.69;56.76;94449.44;4215540;28;20684;-57
2022/07/26 00:38:59;;;;;;;13.00;11.52;;;;;;;22.87;56.04;94450.25;4225410;28;20464;-54
2022/07/26 00:41:00;;;;;;;15.07;12.38;;;;;;;23.04;55.52;94444.97;4214896;28;20051;-56
2022/07/26 00:43:02;;;;;;;16.55;12.30;;;;;;;23.16;55.41;94456.38;4224386;28;20071;-55
2022/07/26 00:45:06;;;;;;;13.52;12.13;;;;;;;23.26;55.10;94437.81;4212381;28;20052;-56
2022/07/26 00:47:07;;;;;;;;;;;;;;;23.35;54.94;94440.09;4220841;28;20395;-56
2022/07/26 00:49:09;;;;;;;14.68;12.88;;;;;;;23.43;54.40;94442.34;4223381;28;19980;-56
2022/07/26 00:51:12;;;;;;;13.98;11.70;;;;;;;23.48;54.29;94445.88;4229487;28;20059;-56
2022/07/26 00:53:14;;;;;;;14.05;11.65;;;;;;;23.55;54.29;94451.06;4224490;28;20112;-56
2022/07/26 00:55:17;;;;;;;14.90;11.55;;;;;;;23.59;53.83;94446.84;4229202;28;20052;-58
2022/07/26 00:57:20;;;;;;;13.38;11.77;;;;;;;23.61;54.00;94452.75;4213320;28;20067;-57
2022/07/26 00:59:22;;;;;;;;;;;;;;;23.66;53.73;94447.50;4229860;28;20101;-53
2022/07/26 01:01:24;;;;;;;13.63;11.43;;;;;;;23.69;53.44;94446.19;4228679;27;19920;-52
2022/07/26 01:03:25;;;;;;;12.60;11.40;;;;;;;23.71;53.49;94444.88;4229330;28;20120;-51
2022/07/26 01:05:41;;;;;;;16.05;11.90;;;;;;;23.76;53.55;94444.16;4227510;28;20047;-51
2022/07/26 01:07:43;;;;;;;12.30;11.05;;;;;;;23.82;52.81;94447.72;4212835;28;20089;-55
2022/07/26 01:09:45;;;;;;;14.20;11.20;;;;;;;23.85;52.70;94452.56;4211381;28;20056;-51
2022/07/26 01:11:47;;;;;;;12.93;11.20;;;;;;;23.88;53.02;94444.88;4211925;28;20055;-52
2022/07/26 01:13:50;;;;;;;12.40;10.63;;;;;;;23.92;52.49;94442.50;4216051;28;20050;-54
2022/07/26 01:15:51;;;;;;;11.68;10.43;;;;;;;23.94;52.47;94443.06;4223687;28;20060;-52
2022/07/26 01:17:53;;;;;;;12.23;10.93;;;;;;;23.93;52.45;94446.78;4228157;28;20069;-55
2022/07/26 01:19:55;;;;;;;13.75;10.95;;;;;;;23.92;51.90;94446.00;4220046;28;20125;-55
2022/07/26 01:21:57;;;;;;;12.10;10.85;;;;;;;23.90;52.07;94441.94;4211737;28;20052;-52
2022/07/26 01:23:59;;;;;;;12.50;10.90;;;;;;;23.85;52.30;94437.31;4209329;28;20048;-51
2022/07/26 01:26:00;;;;;;;11.80;10.60;;;;;;;23.81;52.56;94446.09;4213781;28;20071;-54
2022/07/26 01:28:04;;;;;;;11.75;10.25;;;;;;;23.80;52.57;94436.47;4212245;28;20055;-53
2022/07/26 01:30:09;;;;;;;11.48;10.38;;;;;;;23.82;52.59;94439.69;4220958;28;20047;-53
2022/07/26 01:32:11;;;;;;;12.43;10.40;;;;;;;23.80;51.89;94433.78;4223130;28;20108;-53
2022/07/26 01:34:12;;;;;;;12.13;10.80;;;;;;;23.67;52.11;94437.59;4219916;27;20462;-50
2022/07/26 01:36:14;;;;;;;12.15;10.43;;;;;;;23.57;52.43;94432.91;4213750;28;20048;-49
2022/07/26 01:38:16;;;;;;;13.25;9.98;;;;;;;23.49;52.35;94438.69;4211891;28;20048;-54
2022/07/26 01:40:17;;;;;;;11.15;9.77;;;;;;;23.45;52.75;94434.91;4228823;28;20051;-54
2022/07/26 01:42:19;;;;;;;12.25;9.85;;;;;;;23.47;52.36;94433.59;4225420;28;20055;-52
2022/07/26 01:44:22;;;;;;;13.20;9.82;;;;;;;23.48;52.85;94429.84;4211308;28;20112;-52
2022/07/26 01:46:23;;;;;;;13.65;10.25;;;;;;;23.49;52.20;94433.34;4211509;28;20180;-52
2022/07/26 01:48:25;;;;;;;13.75;10.40;;;;;;;23.45;51.97;94435.69;4218535;28;20039;-49
2022/07/26 01:50:27;;;;;;;11.13;9.98;;;;;;;23.45;52.21;94434.91;4218375;28;20574;-51
2022/07/26 01:52:29;;;;;;;12.15;9.80;;;;;;;23.45;52.15;94435.69;4214534;28;20048;-54
2022/07/26 01:54:30;;;;;;;13.32;9.85;;;;;;;23.16;52.24;94442.19;4220412;28;20043;-50
2022/07/26 01:56:32;;;;;;;10.55;9.30;;;;;;;23.07;52.43;94439.13;4210578;28;20071;-53
2022/07/26 01:58:34;;;;;;;10.55;9.25;;;;;;;23.07;52.85;94439.13;4224020;28;20215;-51
2022/07/26 02:00:36;;;;;;;11.02;9.80;;;;;;;23.12;52.29;94436.53;4212611;28;20052;-53
2022/07/26 02:02:37;;;;;;;10.35;9.30;;;;;;;23.16;52.22;94439.53;4215712;28;20138;-53
2022/07/26 02:04:57;;;;;;;11.13;9.48;;;;;;;23.10;51.93;94443.97;4228028;28;20120;-53
2022/07/26 02:06:59;;;;;;;10.93;9.48;;;;;;;23.12;52.51;94447.22;4223108;28;20105;-56
2022/07/26 02:09:04;;;;;;;14.10;9.55;;;;;;;23.19;52.18;94441.69;4218933;28;20048;-56
2022/07/26 02:11:08;;;;;;;11.45;9.63;;;;;;;23.25;51.84;94446.06;4222658;28;20144;-56
2022/07/26 02:13:09;;;;;;;11.43;9.88;;;;;;;23.30;52.28;94440.81;4228013;28;20098;-58
2022/07/26 02:15:13;;;;;;;12.02;9.50;;;;;;;23.36;51.72;94447.88;4210090;28;20474;-57
2022/07/26 02:17:15;;;;;;;10.82;9.15;;;;;;;23.37;51.32;94448.66;4216674;28;20058;-58
2022/07/26 02:19:17;;;;;;;11.52;10.18;;;;;;;23.40;51.37;94450.84;4227321;28;20462;-55
2022/07/26 02:21:19;;;;;;;10.45;9.05;;;;;;;23.41;50.72;94450.59;4228332;28;20485;-55
2022/07/26 02:23:21;;;;;;;9.88;8.88;;;;;;;23.44;50.67;94454.66;4212255;27;20047;-56
2022/07/26 02:25:24;;;;;;;12.85;9.43;;;;;;;23.43;50.94;94448.50;4227344;28;20047;-56
2022/07/26 02:27:25;;;;;;;12.10;8.75;;;;;;;23.44;50.94;94455.44;4223519;28;20067;-55
2022/07/26 02:29:28;;;;;;;13.20;9.27;;;;;;;23.40;51.02;94450.84;4213551;28;20491;-55
2022/07/26 02:31:30;;;;;;;11.52;9.32;;;;;;;23.29;50.84;94452.56;4211134;28;20401;-58
2022/07/26 02:33:32;;;;;;;12.70;10.00;;;;;;;23.10;51.35;94460.00;4210208;28;20056;-54
2022/07/26 02:35:34;;;;;;;12.02;9.45;;;;;;;22.94;51.58;94445.56;4226588;28;20051;-55
2022/07/26 02:37:36;;;;;;;10.75;8.82;;;;;;;22.84;52.15;94453.41;4221358;27;20109;-55
2022/07/26 02:39:44;;;;;;;10.55;9.55;;;;;;;22.83;51.75;94455.28;4218872;28;20555;-55
2022/07/26 02:41:46;;;;;;;11.18;9.90;;;;;;;22.92;51.92;94457.56;4227537;28;20052;-56
2022/07/26 02:43:48;;;;;;;11.02;9.40;;;;;;;23.01;51.65;94456.91;4227067;28;20063;-57
2022/07/26 02:45:49;;;;;;;10.75;9.13;;;;;;;23.11;51.58;94450.94;4211897;28;20105;-56
2022/07/26 02:48:02;;;;;;;9.93;8.90;;;;;;;23.17;51.43;94455.31;4227046;28;20104;-55
2022/07/26 02:50:06;;;;;;;11.27;8.63;;;;;;;23.21;51.10;94459.13;4217265;28;20052;-53
2022/07/26 02:52:07;;;;;;;11.07;9.80;;;;;;;23.18;51.05;94458.81;4213172;28;20072;-54
2022/07/26 02:54:09;;;;;;;13.77;9.50;;;;;;;23.19;51.35;94452.38;4221931;28;20108;-56
2022/07/26 02:56:12;;;;;;;10.90;9.63;;;;;;;23.19;51.38;94452.38;4217953;28;20105;-54
2022/07/26 02:58:14;;;;;;;12.20;9.57;;;;;;;23.19;51.41;94457.72;4217099;28;20527;-55
2022/07/26 03:00:18;;;;;;;11.85;9.65;;;;;;;23.16;51.72;94453.69;4223638;28;20044;-58
2022/07/26 03:02:20;;;;;;;11.35;9.82;;;;;;;23.16;51.73;94452.88;4224674;27;20052;-56
2022/07/26 03:04:21;;;;;;;11.15;9.95;;;;;;;23.15;52.08;94457.44;4214439;28;20136;-52
2022/07/26 03:06:23;;;;;;;13.02;9.90;;;;;;;23.16;52.01;94459.03;4219764;28;20048;-51
2022/07/26 03:08:25;;;;;;;12.40;10.48;;;;;;;23.18;51.94;94464.16;4212983;28;20474;-53
2022/07/26 03:10:26;;;;;;;13.60;10.27;;;;;;;23.19;51.84;94461.25;4209812;28;20658;-49
2022/07/26 03:12:29;;;;;;;10.68;9.68;;;;;;;23.23;52.03;94459.69;4223458;28;20058;-54
2022/07/26 03:14:31;;;;;;;11.67;10.37;;;;;;;23.25;51.78;94459.44;4214079;28;20111;-51
2022/07/26 03:16:33;;;;;;;13.45;10.18;;;;;;;23.22;51.95;94463.41;4219919;28;20075;-51
2022/07/26 03:18:34;;;;;;;15.38;10.40;;;;;;;23.20;51.96;94468.19;4219386;28;20063;-56
2022/07/26 03:20:36;;;;;;;10.80;9.68;;;;;;;23.20;51.63;94465.50;4225673;28;20128;-52
2022/07/26 03:22:38;;;;;;;12.13;10.45;;;;;;;23.22;51.82;94463.41;4208513;28;20062;-53
2022/07/26 03:24:40;;;;;;;12.90;10.10;;;;;;;23.21;51.76;94467.16;4209144;28;20056;-52
2022/07/26 03:26:41;;;;;;;13.70;9.93;;;;;;;23.23;52.18;94469.56;4208906;28;20078;-52
2022/07/26 03:28:43;;;;;;;14.20;10.13;;;;;;;23.24;51.75;94463.19;4211241;28;20056;-52
2022/07/26 03:30:45;;;;;;;13.93;10.43;;;;;;;23.23;52.10;94473.06;4225148;28;20474;-51
2022/07/26 03:32:47;;;;;;;11.25;9.63;;;;;;;23.23;52.12;94474.91;4209631;28;20425;-53
2022/07/26 03:34:49;;;;;;;13.35;10.05;;;;;;;23.31;52.11;94477.19;4211991;28;20044;-52
2022/07/26 03:36:50;;;;;;;13.23;10.45;;;;;;;23.37;52.20;94470.06;4220177;28;20048;-52
2022/07/26 03:38:52;;;;;;;12.05;10.68;;;;;;;23.40;51.81;94467.69;4209075;28;20405;-53
2022/07/26 03:40:54;;;;;;;11.55;10.15;;;;;;;23.44;51.62;94476.03;4212410;28;20036;-53
2022/07/26 03:42:55;;;;;;;14.02;10.40;;;;;;;23.46;52.04;94468.56;4215638;28;20447;-51
2022/07/26 03:44:57;;;;;;;12.07;10.80;;;;;;;23.54;51.70;94470.84;4226862;28;20048;-50
2022/07/26 03:46:59;;;;;;;15.82;10.82;;;;;;;23.56;51.51;94468.75;4214561;28;20056;-52
2022/07/26 03:49:00;;;;;;;12.38;10.93;;;;;;;23.60;51.36;94469.88;4209154;28;20052;-53
2022/07/26 03:51:02;;;;;;;16.95;10.30;;;;;;;23.63;51.34;94466.69;4210474;28;20100;-53
2022/07/26 03:53:04;;;;;;;11.68;10.48;;;;;;;23.66;51.04;94474.22;4208635;28;20442;-52
2022/07/26 03:57:26;;;;;;;12.85;10.45;;;;;;;23.73;51.40;94465.22;4213428;28;20039;-54
2022/07/26 03:59:28;;;;;;;15.82;10.35;;;;;;;23.77;51.32;94463.69;4217505;28;20051;-56
2022/07/26 04:01:31;;;;;;;12.20;10.82;;;;;;;23.81;51.13;94470.16;4218453;28;20128;-57
2022/07/26 04:03:33;;;;;;;14.63;11.27;;;;;;;23.86;51.21;94465.69;4209696;28;20632;-57
2022/07/26 04:05:35;;;;;;;23.02;11.52;;;;;;;23.93;51.10;94468.19;4224408;28;20358;-56
2022/07/26 04:07:45;;;;;;;14.07;12.68;;;;;;;23.94;50.98;94469.81;4222098;28;20051;-51
2022/07/26 04:09:53;;;;;;;11.90;10.65;;;;;;;23.97;50.96;94460.50;4217677;28;20088;-53
2022/07/26 04:11:55;;;;;;;14.23;11.50;;;;;;;24.00;51.33;94466.13;4215380;28;20051;-52
2022/07/26 04:13:57;;;;;;;15.13;12.68;;;;;;;23.96;51.90;94470.34;4209659;28;20109;-50
2022/07/26 04:15:59;;;;;;;15.35;11.95;;;;;;;23.97;51.93;94455.94;4209809;28;20060;-53
2022/07/26 04:18:01;;;;;;;13.80;12.20;;;;;;;24.05;51.74;94466.22;4220143;28;20523;-55
2022/07/26 04:20:03;;;;;;;14.35;12.07;;;;;;;24.12;51.76;94461.47;4217472;28;20070;-53
2022/07/26 04:22:04;;;;;;;15.80;12.27;;;;;;;24.17;51.70;94466.06;4224930;28;20051;-52
2022/07/26 04:24:06;;;;;;;14.52;12.45;;;;;;;24.20;52.15;94451.38;4229363;28;20078;-49
2022/07/26 04:26:09;;;;;;;12.80;11.50;;;;;;;24.17;52.21;94459.91;4211532;28;20129;-52
2022/07/26 04:28:11;;;;;;;14.38;12.13;;;;;;;24.18;52.46;94453.50;4212799;28;20052;-51
2022/07/26 04:30:12;;;;;;;13.73;12.23;;;;;;;24.22;52.27;94459.97;4216422;28;20044;-51
2022/07/26 04:32:16;;;;;;;;;;;;;;;24.25;52.17;94454.13;4222805;28;20055;-53
2022/07/26 04:34:17;;;;;;;16.70;12.40;;;;;;;24.28;52.10;94457.09;4229392;28;20365;-53
2022/07/26 04:36:19;;;;;;;13.85;12.45;;;;;;;24.29;52.16;94452.56;4228904;28;20101;-51
2022/07/26 04:38:21;;;;;;;14.57;12.43;;;;;;;24.34;52.02;94452.63;4223148;28;20462;-51
2022/07/26 04:40:24;;;;;;;14.35;12.90;;;;;;;24.42;51.81;94454.06;4213984;28;20079;-51
2022/07/26 04:42:26;;;;;;;14.30;12.90;;;;;;;24.49;52.02;94449.34;4228812;28;20055;-52
2022/07/26 04:44:27;;;;;;;18.38;13.88;;;;;;;24.45;51.92;94457.03;4229665;27;20128;-55
2022/07/26 04:46:29;;;;;;;14.30;12.48;;;;;;;24.39;52.14;94450.00;4219736;28;20044;-51
2022/07/26 04:48:31;;;;;;;14.02;12.48;;;;;;;24.44;52.14;94451.94;4229507;28;20416;-50
2022/07/26 04:50:33;;;;;;;13.93;12.13;;;;;;;24.50;51.84;94451.78;4228839;28;20135;-52
2022/07/26 04:52:35;;;;;;;17.48;12.77;;;;;;;24.57;51.75;94456.13;4226419;28;20051;-53
2022/07/26 04:54:36;;;;;;;15.00;12.23;;;;;;;24.69;51.68;94452.22;4216680;28;20444;-57
2022/07/26 04:56:38;;;;;;;17.90;13.00;;;;;;;24.76;51.32;94462.75;4225239;28;20058;-55
2022/07/26 04:58:40;;;;;;;16.20;13.75;;;;;;;24.83;51.29;94460.66;4215531;28;20052;-53
2022/07/26 05:00:41;;;;;;;14.65;13.07;;;;;;;24.89;50.92;94454.28;4218126;28;20051;-53
2022/07/26 05:03:03;;;;;;;16.83;13.60;;;;;;;24.93;51.14;94454.59;4211889;28;20048;-54
2022/07/26 05:05:06;;;;;;;14.80;12.77;;;;;;;25.00;50.95;94449.03;4216698;28;20048;-52
2022/07/26 05:07:08;;;;;;;18.03;14.23;;;;;;;24.98;50.83;94451.94;4211300;28;20056;-53
2022/07/26 05:09:10;;;;;;;19.70;13.63;;;;;;;24.95;50.99;94452.44;4227306;28;20288;-54
2022/07/26 05:11:11;;;;;;;24.58;13.63;;;;;;;24.85;51.45;94458.53;4227846;27;20124;-53
2022/07/26 05:13:13;;;;;;;19.25;14.10;;;;;;;24.76;51.77;94454.72;4219717;28;20081;-52
2022/07/26 05:15:15;;;;;;;17.13;13.93;;;;;;;24.71;51.92;94451.97;4228332;28;20127;-54
2022/07/26 05:17:17;;;;;;;17.20;14.15;;;;;;;24.77;51.63;94442.91;4224458;28;20052;-55
2022/07/26 05:19:20;;;;;;;15.30;13.75;;;;;;;24.85;51.64;94441.66;4226547;28;20423;-54
2022/07/26 05:21:22;;;;;;;18.40;13.57;;;;;;;24.92;51.47;94440.38;4221454;28;20052;-53
2022/07/26 05:23:23;;;;;;;15.82;12.82;;;;;;;24.65;51.70;94439.56;4215946;28;20192;-53
2022/07/26 05:25:25;;;;;;;16.75;13.77;;;;;;;24.39;52.50;94444.63;4216589;28;20377;-50
2022/07/26 05:27:27;;;;;;;15.25;13.60;;;;;;;24.32;52.67;94446.72;4226491;28;20048;-53
2022/07/26 05:29:29;;;;;;;15.13;13.15;;;;;;;24.37;52.99;94446.78;4227161;28;20052;-51
2022/07/26 05:31:30;;;;;;;14.57;12.65;;;;;;;24.45;52.74;94449.00;4219649;28;20089;-55
2022/07/26 05:33:32;;;;;;;16.60;13.95;;;;;;;24.63;52.50;94436.34;4210077;28;20059;-57
2022/07/26 05:35:34;;;;;;;15.30;13.10;;;;;;;24.71;52.37;94442.03;4216133;28;20571;-55
2022/07/26 05:37:36;;;;;;;17.40;12.85;;;;;;;24.65;52.70;94447.59;4222421;28;20108;-54
2022/07/26 05:39:37;;;;;;;17.02;13.00;;;;;;;24.59;52.98;94444.09;4218215;28;20082;-56
2022/07/26 05:41:39;;;;;;;15.00;13.40;;;;;;;24.60;52.77;94443.03;4218943;28;20044;-56
2022/07/26 05:43:40;;;;;;;19.00;13.98;;;;;;;24.55;52.93;94442.19;4211748;28;20092;-55
2022/07/26 05:45:42;;;;;;;17.17;13.23;;;;;;;24.46;53.45;94437.25;4213680;28;20044;-56
2022/07/26 05:47:44;;;;;;;17.00;12.98;;;;;;;24.51;53.78;94440.00;4226144;27;20040;-56
2022/07/26 05:49:46;;;;;;;15.48;12.38;;;;;;;24.42;53.60;94433.44;4225396;28;20111;-55
2022/07/26 05:51:47;;;;;;;16.48;12.18;;;;;;;24.42;53.79;94438.78;4218391;28;20504;-55
2022/07/26 05:53:49;;;;;;;16.40;11.93;;;;;;;24.27;54.75;94433.28;4225917;28;20446;-55
2022/07/26 05:55:51;;;;;;;17.23;12.52;;;;;;;24.22;54.51;94434.03;4224118;27;20040;-57
2022/07/26 05:57:52;;;;;;;18.30;13.38;;;;;;;24.28;54.64;94426.84;4217997;28;20048;-58
2022/07/26 05:59:54;;;;;;;14.38;12.80;;;;;;;24.41;54.20;94431.81;4221614;28;20059;-57
2022/07/26 06:01:56;;;;;;;15.30;11.90;;;;;;;24.56;54.15;94425.84;4217599;28;20082;-57
2022/07/26 06:03:58;;;;;;;20.52;12.68;;;;;;;24.62;53.87;94432.06;4210800;28;20052;-57
2022/07/26 06:06:00;;;;;;;15.10;12.18;;;;;;;24.59;54.01;94430.69;4225666;28;20070;-56
2022/07/26 06:08:01;;;;;;;18.50;12.85;;;;;;;24.81;53.67;94424.47;4209586;28;20044;-57
2022/07/26 06:10:03;;;;;;;16.73;12.98;;;;;;;24.78;53.40;94422.28;4211093;28;20500;-56
2022/07/26 06:12:05;;;;;;;16.67;13.98;;;;;;;24.39;54.22;94417.88;4212670;28;20094;-59
2022/07/26 06:14:07;;;;;;;17.63;13.15;;;;;;;24.36;54.75;94422.94;4210415;28;20048;-55
2022/07/26 06:16:10;;;;;;;15.95;12.98;;;;;;;24.44;54.54;94415.25;4223100;28;20485;-57
2022/07/26 06:18:12;;;;;;;15.20;13.68;;;;;;;24.62;54.14;94405.28;4216790;28;20043;-56
2022/07/26 06:20:14;;;;;;;19.10;14.95;;;;;;;24.71;53.31;94409.09;4226460;28;20043;-57
2022/07/26 06:22:15;;;;;;;18.73;13.73;;;;;;;24.77;53.75;94412.66;4227097;28;20086;-57
2022/07/26 06:24:17;;;;;;;16.05;13.18;;;;;;;24.85;53.38;94413.00;4212367;28;20120;-58
2022/07/26 06:26:19;;;;;;;14.73;12.85;;;;;;;24.91;53.42;94411.16;4210417;28;20433;-57
2022/07/26 06:28:20;;;;;;;15.30;13.02;;;;;;;25.09;53.15;94407.28;4211997;28;20461;-58
2022/07/26 06:30:23;;;;;;;15.27;13.80;;;;;;;24.93;53.06;94412.53;4218087;28;20570;-56
2022/07/26 06:32:25;;;;;;;17.70;13.80;;;;;;;25.08;52.85;94409.16;4220962;28;20516;-57
2022/07/26 06:34:26;;;;;;;15.40;13.07;;;;;;;25.25;52.55;94408.22;4212330;28;20052;-56
2022/07/26 06:36:28;;;;;;;13.45;12.07;;;;;;;25.40;52.30;94411.00;4209973;28;20044;-57
2022/07/26 06:38:32;;;;;;;16.08;13.52;;;;;;;25.45;52.15;94408.38;4211370;28;20048;-58
2022/07/26 06:40:34;;;;;;;17.20;13.40;;;;;;;25.55;51.96;94412.97;4214405;28;20146;-58
2022/07/26 06:42:36;;;;;;;17.60;13.85;;;;;;;25.45;51.45;94407.56;4227013;28;20044;-56
2022/07/26 06:44:37;;;;;;;15.18;13.57;;;;;;;25.38;51.71;94405.09;4222083;28;20654;-59
2022/07/26 06:46:39;;;;;;;15.95;13.63;;;;;;;25.52;51.37;94408.94;4216440;28;20101;-57
2022/07/26 06:48:41;;;;;;;27.27;16.08;;;;;;;25.49;51.39;94409.47;4210709;28;20131;-56
2022/07/26 06:50:48;;;;;;;21.05;15.32;;;;;;;25.52;51.48;94408.13;4209660;28;20493;-58
2022/07/26 06:52:49;;;;;;;20.98;16.45;;;;;;;25.63;50.79;94398.25;4213461;28;20052;-56
2022/07/26 06:54:51;;;;;;;19.95;14.98;;;;;;;25.82;50.64;94410.16;4217004;28;20052;-57
2022/07/26 06:56:53;;;;;;;22.08;15.35;;;;;;;25.86;50.37;94413.16;4214718;28;20113;-56
2022/07/26 06:58:55;;;;;;;21.90;13.90;;;;;;;25.81;51.02;94410.41;4220331;28;20634;-52
2022/07/26 07:00:57;;;;;;;18.85;15.20;;;;;;;25.89;50.40;94408.06;4214522;28;20135;-53
2022/07/26 07:02:58;;;;;;;25.20;17.05;;;;;;;25.73;50.44;94406.38;4215669;28;20139;-54
2022/07/26 07:05:01;;;;;;;20.73;16.27;;;;;;;25.77;50.43;94403.94;4221066;28;20051;-52
2022/07/26 07:07:04;;;;;;;19.20;14.75;;;;;;;25.97;50.61;94403.28;4213552;28;20484;-53
2022/07/26 07:09:07;;;;;;;22.48;15.13;;;;;;;26.06;50.13;94402.50;4209657;28;20575;-57
2022/07/26 07:11:09;;;;;;;;;;;;;;;26.14;49.93;94402.00;4214110;28;20589;-53
2022/07/26 07:13:11;;;;;;;16.02;13.40;;;;;;;26.28;50.09;94404.97;4216209;28;19927;-52
2022/07/26 07:15:13;;;;;;;16.75;13.88;;;;;;;26.43;49.54;94412.28;4225666;28;20059;-53
2022/07/26 07:17:18;;;;;;;16.42;14.10;;;;;;;26.36;49.58;94401.78;4216724;28;20109;-53
2022/07/26 07:19:21;;;;;;;22.52;14.70;;;;;;;26.43;49.54;94403.41;4208558;28;20142;-53
2022/07/26 07:21:22;;;;;;;24.13;14.63;;;;;;;26.20;49.57;94399.31;4223372;28;20557;-53
2022/07/26 07:23:24;;;;;;;20.80;15.77;;;;;;;26.18;49.71;94401.47;4222954;28;20463;-53
2022/07/26 07:25:26;;;;;;;22.65;15.15;;;;;;;26.08;49.73;94400.38;4214320;28;20055;-50
2022/07/26 07:27:31;;;;;;;19.40;15.48;;;;;;;26.13;49.75;94397.69;4212910;28;20043;-52
2022/07/26 07:29:34;;;;;;;17.85;15.18;;;;;;;26.17;49.77;94403.34;4213547;28;20135;-52
2022/07/26 07:31:35;;;;;;;23.05;15.23;;;;;;;26.38;49.57;94406.91;4223116;28;20639;-56
2022/07/26 07:33:49;;;;;;;26.85;15.48;;;;;;;26.44;49.06;94408.53;4209071;28;20060;-51
2022/07/26 07:35:54;;;;;;;20.70;16.27;;;;;;;26.58;48.55;94400.00;4214026;28;20178;-54
2022/07/26 07:37:56;;;;;;;20.65;16.02;;;;;;;26.76;48.66;94405.66;4208422;28;20055;-53
2022/07/26 07:39:57;;;;;;;21.73;14.82;;;;;;;26.86;48.24;94399.47;4227297;28;20052;-52
2022/07/26 07:41:59;;;;;;;15.80;14.05;;;;;;;26.95;48.25;94402.44;4220852;28;20051;-52
2022/07/26 07:44:01;;;;;;;18.02;14.45;;;;;;;27.03;47.90;94401.09;4210738;28;20536;-52
2022/07/26 07:46:03;;;;;;;15.23;12.73;;;;;;;27.21;47.12;94395.19;4212729;28;20111;-55
2022/07/26 07:48:05;;;;;;;14.73;13.20;;;;;;;27.19;47.53;94394.63;4219931;28;20084;-53
2022/07/26 07:50:07;;;;;;;15.75;14.05;;;;;;;26.98;47.42;94393.03;4209008;28;20109;-53
2022/07/26 07:52:09;;;;;;;16.80;14.23;;;;;;;27.08;47.18;94391.16;4210779;28;20138;-54
2022/07/26 07:54:11;;;;;;;15.95;14.27;;;;;;;27.22;46.88;94380.69;4220686;28;20077;-53
2022/07/26 07:56:12;;;;;;;15.60;14.00;;;;;;;27.12;46.89;94388.72;4216780;28;20043;-55
2022/07/26 07:58:15;;;;;;;17.42;13.32;;;;;;;27.21;46.89;94384.44;4216278;28;20055;-57
2022/07/26 08:00:19;;;;;;;14.40;12.73;;;;;;;27.26;46.88;94386.31;4226713;28;20063;-57
2022/07/26 08:02:27;;;;;;;14.45;12.93;;;;;;;27.53;47.10;94386.00;4211871;28;20573;-57
2022/07/26 08:04:29;;;;;;;16.65;13.25;;;;;;;27.59;46.27;94384.91;4221236;28;20044;-56
2022/07/26 08:06:31;;;;;;;15.48;13.25;;;;;;;27.63;46.27;94380.59;4217602;28;20056;-57
2022/07/26 08:08:34;;;;;;;25.63;14.57;;;;;;;27.57;46.78;94387.84;4225361;28;20082;-56
2022/07/26 08:10:36;;;;;;;15.75;12.85;;;;;;;27.78;46.15;94377.03;4225881;28;20112;-51
2022/07/26 08:12:44;;;;;;;17.08;13.30;;;;;;;28.03;45.08;94375.34;4209506;28;20048;-53
2022/07/26 08:14:45;;;;;;;14.88;13.23;;;;;;;28.28;45.28;94377.91;4210209;28;20056;-54
2022/07/26 08:16:47;;;;;;;14.15;12.55;;;;;;;28.47;44.33;94372.69;4217979;28;20047;-53
2022/07/26 08:18:49;;;;;;;18.30;12.95;;;;;;;28.65;44.22;94367.75;4215087;28;20052;-53
2022/07/26 08:20:58;;;;;;;19.58;12.95;;;;;;;28.48;43.99;94368.09;4223426;28;20163;-54
2022/07/26 08:23:00;;;;;;;15.90;13.38;;;;;;;28.09;44.92;94360.78;4212462;28;20100;-52
2022/07/26 08:25:02;;;;;;;15.00;12.70;;;;;;;28.07;44.68;94366.47;4219312;28;20044;-54
2022/07/26 08:27:03;;;;;;;16.83;13.05;;;;;;;28.00;45.49;94368.63;4209698;28;20044;-58
2022/07/26 08:29:05;;;;;;;17.60;13.45;;;;;;;28.01;45.02;94358.66;4209512;28;20105;-57
2022/07/26 08:31:07;;;;;;;14.07;12.65;;;;;;;28.27;44.87;94360.16;4208765;28;20117;-59
2022/07/26 08:33:09;;;;;;;16.23;12.60;;;;;;;28.51;44.65;94360.31;4211173;28;20180;-58
2022/07/26 08:35:11;;;;;;;16.88;12.93;;;;;;;28.77;43.97;94358.22;4220274;28;20537;-57
2022/07/26 08:37:19;;;;;;;15.18;12.90;;;;;;;28.83;43.08;94352.81;4225133;28;20044;-57
2022/07/26 08:39:21;;;;;;;16.40;12.90;;;;;;;29.03;42.75;94358.00;4212667;28;20124;-58
2022/07/26 08:41:23;;;;;;;15.20;12.43;;;;;;;28.92;43.17;94351.09;4224578;28;20043;-58
2022/07/26 08:43:24;;;;;;;17.42;13.18;;;;;;;28.54;43.77;94351.66;4214058;28;20052;-58
2022/07/26 08:45:28;;;;;;;15.20;12.02;;;;;;;28.48;44.16;94347.41;4208945;28;20105;-57
2022/07/26 08:47:29;;;;;;;17.05;12.63;;;;;;;28.73;43.96;94343.69;4215034;28;20539;-56
2022/07/26 08:49:41;;;;;;;14.30;12.80;;;;;;;28.98;43.17;94345.38;4209098;28;20474;-58
2022/07/26 08:51:43;;;;;;;17.13;13.93;;;;;;;29.19;42.96;94345.25;4208712;28;20575;-57
2022/07/26 08:53:45;;;;;;;17.83;15.93;;;;;;;29.45;42.43;94344.97;4218503;28;20517;-58
2022/07/26 08:55:46;;;;;;;14.77;12.25;;;;;;;29.66;41.87;94348.25;4209418;28;20112;-57
2022/07/26 08:58:07;;;;;;;16.30;12.80;;;;;;;29.85;41.48;94351.81;4209273;28;20585;-56
2022/07/26 09:00:28;;;;;;;15.18;12.60;;;;;;;29.82;40.66;94344.31;4209068;28;20143;-58
2022/07/26 09:02:40;;;;;;;14.40;11.88;;;;;;;29.68;40.04;94348.75;4208750;28;20048;-57
2022/07/26 09:04:44;;;;;;;13.15;11.60;;;;;;;29.45;40.38;94344.97;4209661;28;20570;-57
2022/07/26 09:06:56;;;;;;;17.00;12.15;;;;;;;29.10;41.19;94342.31;4207755;28;20117;-58
2022/07/26 09:09:09;;;;;;;25.52;12.73;;;;;;;29.12;40.86;94344.75;4208968;28;20075;-60
2022/07/26 09:11:27;;;;;;;14.38;12.88;;;;;;;29.31;40.93;94336.75;4226913;28;20555;-58
2022/07/26 09:13:49;;;;;;;15.82;12.75;;;;;;;29.34;40.25;94337.00;4212236;28;20044;-58
2022/07/26 09:16:09;;;;;;;14.20;12.38;;;;;;;29.47;39.62;94331.97;4226761;28;20127;-56
2022/07/26 09:18:28;;;;;;;14.73;11.50;;;;;;;29.48;39.45;94345.19;4215756;28;20132;-55
2022/07/26 09:20:30;;;;;;;12.80;11.05;;;;;;;29.68;38.74;94340.66;4215651;28;20116;-57
2022/07/26 09:22:32;;;;;;;11.45;10.30;;;;;;;29.74;37.61;94343.03;4213541;27;20676;-56
2022/07/26 09:24:37;;;;;;;11.02;9.93;;;;;;;29.91;36.74;94341.78;4211646;28;20105;-57
2022/07/26 09:26:39;;;;;;;12.55;9.63;;;;;;;29.94;35.04;94341.19;4218649;28;20150;-57
2022/07/26 09:28:40;;;;;;;11.18;8.90;;;;;;;29.88;34.32;94334.25;4212853;28;20063;-59